sensor_id;sensor_type;location;lat;lon;timestamp;pressure;altitude;pressure_sealevel;temperature;humidity
33625;BME280;19962;47.820;1.930;2022-10-31T00:00:22;100820.19;;;22.79;75.99
33625;BME280;19962;47.820;1.930;2022-10-31T00:02:49;100822.47;;;22.77;76.16
33625;BME280;19962;47.820;1.930;2022-10-31T00:05:15;100816.59;;;22.79;75.83
33625;BME280;19962;47.820;1.930;2022-10-31T00:07:41;100821.63;;;22.77;75.95
33625;BME280;19962;47.820;1.930;2022-10-31T00:10:08;100819.97;;;22.76;76.04
33625;BME280;19962;47.820;1.930;2022-10-31T00:12:34;100820.78;;;22.76;75.98
33625;BME280;19962;47.820;1.930;2022-10-31T00:15:00;100819.13;;;22.75;76.11
33625;BME280;19962;47.820;1.930;2022-10-31T00:17:26;100816.97;;;22.72;76.13
33625;BME280;19962;47.820;1.930;2022-10-31T00:19:52;100813.34;;;22.72;75.93
33625;BME280;19962;47.820;1.930;2022-10-31T00:22:18;100814.78;;;22.69;76.06
33625;BME280;19962;47.820;1.930;2022-10-31T00:24:45;100818.09;;;22.71;75.93
33625;BME280;19962;47.820;1.930;2022-10-31T00:27:11;100808.59;;;22.72;75.70
33625;BME280;19962;47.820;1.930;2022-10-31T00:29:37;100805.78;;;22.72;75.71
33625;BME280;19962;47.820;1.930;2022-10-31T00:32:03;100802.16;;;22.72;75.83
33625;BME280;19962;47.820;1.930;2022-10-31T00:34:29;100800.50;;;22.71;75.71
33625;BME280;19962;47.820;1.930;2022-10-31T00:36:55;100800.50;;;22.71;75.85
33625;BME280;19962;47.820;1.930;2022-10-31T00:39:21;100807.75;;;22.72;75.82
33625;BME280;19962;47.820;1.930;2022-10-31T00:41:47;100802.44;;;22.70;75.75
33625;BME280;19962;47.820;1.930;2022-10-31T00:44:13;100807.94;;;22.75;75.56
33625;BME280;19962;47.820;1.930;2022-10-31T00:46:39;100813.53;;;22.75;75.37
33625;BME280;19962;47.820;1.930;2022-10-31T00:49:05;100815.19;;;22.76;75.43
33625;BME280;19962;47.820;1.930;2022-10-31T00:51:32;100815.19;;;22.76;75.25
33625;BME280;19962;47.820;1.930;2022-10-31T00:53:58;100820.28;;;22.74;75.49
33625;BME280;19962;47.820;1.930;2022-10-31T00:56:24;100808.78;;;22.76;75.50
33625;BME280;19962;47.820;1.930;2022-10-31T00:58:50;100807.44;;;22.73;75.72
33625;BME280;19962;47.820;1.930;2022-10-31T01:01:16;100808.25;;;22.74;75.45
33625;BME280;19962;47.820;1.930;2022-10-31T01:03:42;100803.78;;;22.73;75.56
33625;BME280;19962;47.820;1.930;2022-10-31T01:06:11;100792.81;;;22.76;75.07
33625;BME280;19962;47.820;1.930;2022-10-31T01:08:38;100800.69;;;22.74;75.27
33625;BME280;19962;47.820;1.930;2022-10-31T01:11:16;100795.41;;;22.73;75.40
33625;BME280;19962;47.820;1.930;2022-10-31T01:13:43;100793.44;;;22.73;75.30
33625;BME280;19962;47.820;1.930;2022-10-31T01:16:13;100783.41;;;22.72;75.31
33625;BME280;19962;47.820;1.930;2022-10-31T01:18:39;100783.72;;;22.71;75.21
33625;BME280;19962;47.820;1.930;2022-10-31T01:21:09;100775.81;;;22.73;75.28
33625;BME280;19962;47.820;1.930;2022-10-31T01:23:35;100773.31;;;22.71;75.16
33625;BME280;19962;47.820;1.930;2022-10-31T01:31:16;100766.09;;;22.70;75.31
33625;BME280;19962;47.820;1.930;2022-10-31T01:33:43;100772.53;;;22.71;75.36
33625;BME280;19962;47.820;1.930;2022-10-31T01:36:33;100772.81;;;22.69;75.39
33625;BME280;19962;47.820;1.930;2022-10-31T01:39:04;100770.53;;;22.71;75.30
33625;BME280;19962;47.820;1.930;2022-10-31T01:41:33;100770.88;;;22.70;75.21
33625;BME280;19962;47.820;1.930;2022-10-31T01:44:03;100761.09;;;22.67;75.27
33625;BME280;19962;47.820;1.930;2022-10-31T01:46:43;100753.25;;;22.69;75.17
33625;BME280;19962;47.820;1.930;2022-10-31T01:57:44;100747.75;;;22.64;75.27
33625;BME280;19962;47.820;1.930;2022-10-31T02:00:13;100751.13;;;22.61;75.29
33625;BME280;19962;47.820;1.930;2022-10-31T02:02:41;100750.00;;;22.62;75.33
33625;BME280;19962;47.820;1.930;2022-10-31T02:05:10;100754.00;;;22.56;75.47
33625;BME280;19962;47.820;1.930;2022-10-31T02:07:54;100750.06;;;22.57;75.25
33625;BME280;19962;47.820;1.930;2022-10-31T02:10:22;100746.13;;;22.58;74.97
33625;BME280;19962;47.820;1.930;2022-10-31T02:12:51;100747.91;;;22.54;75.64
33625;BME280;19962;47.820;1.930;2022-10-31T02:15:18;100748.22;;;22.53;75.57
33625;BME280;19962;47.820;1.930;2022-10-31T02:17:45;100741.56;;;22.49;75.66
33625;BME280;19962;47.820;1.930;2022-10-31T02:20:18;100739.06;;;22.47;75.91
33625;BME280;19962;47.820;1.930;2022-10-31T02:36:56;100715.41;;;22.40;75.88
33625;BME280;19962;47.820;1.930;2022-10-31T02:39:36;100712.06;;;22.38;75.65
33625;BME280;19962;47.820;1.930;2022-10-31T02:42:26;100702.00;;;22.37;75.68
33625;BME280;19962;47.820;1.930;2022-10-31T02:45:14;100703.06;;;22.41;75.39
33625;BME280;19962;47.820;1.930;2022-10-31T02:47:46;100693.84;;;22.40;75.38
33625;BME280;19962;47.820;1.930;2022-10-31T02:52:43;100684.72;;;22.35;75.93
33625;BME280;19962;47.820;1.930;2022-10-31T02:57:49;100677.25;;;22.30;76.03
33625;BME280;19962;47.820;1.930;2022-10-31T03:00:16;100661.31;;;22.31;75.79
33625;BME280;19962;47.820;1.930;2022-10-31T03:08:20;100654.13;;;22.25;76.06
33625;BME280;19962;47.820;1.930;2022-10-31T03:10:59;100647.72;;;22.24;75.94
33625;BME280;19962;47.820;1.930;2022-10-31T03:16:28;100637.69;;;22.23;75.62
33625;BME280;19962;47.820;1.930;2022-10-31T03:21:45;100637.31;;;22.30;75.21
33625;BME280;19962;47.820;1.930;2022-10-31T03:24:15;100626.41;;;22.28;75.29
33625;BME280;19962;47.820;1.930;2022-10-31T03:26:46;100624.53;;;22.24;75.51
33625;BME280;19962;47.820;1.930;2022-10-31T03:29:16;100622.56;;;22.24;75.40
33625;BME280;19962;47.820;1.930;2022-10-31T03:31:51;100610.75;;;22.27;75.34
33625;BME280;19962;47.820;1.930;2022-10-31T03:34:21;100609.81;;;22.18;75.92
33625;BME280;19962;47.820;1.930;2022-10-31T03:36:50;100600.81;;;22.21;74.88
33625;BME280;19962;47.820;1.930;2022-10-31T03:39:20;100590.88;;;22.15;74.86
33625;BME280;19962;47.820;1.930;2022-10-31T03:41:56;100593.03;;;22.18;75.80
33625;BME280;19962;47.820;1.930;2022-10-31T03:44:24;100594.63;;;22.24;75.08
33625;BME280;19962;47.820;1.930;2022-10-31T03:46:52;100594.63;;;22.24;75.58
33625;BME280;19962;47.820;1.930;2022-10-31T03:49:19;100600.81;;;22.21;75.48
33625;BME280;19962;47.820;1.930;2022-10-31T03:52:33;100613.44;;;22.19;75.47
33625;BME280;19962;47.820;1.930;2022-10-31T03:58:08;100616.53;;;22.17;75.73
33625;BME280;19962;47.820;1.930;2022-10-31T04:00:39;100618.44;;;22.22;75.23
33625;BME280;19962;47.820;1.930;2022-10-31T04:03:17;100626.66;;;22.13;75.44
33625;BME280;19962;47.820;1.930;2022-10-31T04:05:46;100621.06;;;22.13;75.57
33625;BME280;19962;47.820;1.930;2022-10-31T04:08:18;100621.06;;;22.13;75.82
33625;BME280;19962;47.820;1.930;2022-10-31T04:10:48;100614.03;;;22.16;74.50
33625;BME280;19962;47.820;1.930;2022-10-31T04:13:19;100609.38;;;22.11;75.66
33625;BME280;19962;47.820;1.930;2022-10-31T04:15:48;100597.66;;;22.09;75.38
33625;BME280;19962;47.820;1.930;2022-10-31T04:18:15;100592.91;;;22.10;75.84
33625;BME280;19962;47.820;1.930;2022-10-31T04:20:42;100587.94;;;22.07;75.66
33625;BME280;19962;47.820;1.930;2022-10-31T04:23:24;100598.59;;;22.05;75.52
33625;BME280;19962;47.820;1.930;2022-10-31T04:25:51;100594.88;;;22.09;75.83
33625;BME280;19962;47.820;1.930;2022-10-31T04:28:17;100601.38;;;22.05;74.97
33625;BME280;19962;47.820;1.930;2022-10-31T04:30:44;100594.16;;;22.04;75.48
33625;BME280;19962;47.820;1.930;2022-10-31T04:33:10;100587.13;;;22.06;75.66
33625;BME280;19962;47.820;1.930;2022-10-31T04:35:36;100592.69;;;22.06;74.92
33625;BME280;19962;47.820;1.930;2022-10-31T04:38:02;100590.50;;;22.03;75.85
33625;BME280;19962;47.820;1.930;2022-10-31T04:40:28;100586.66;;;21.99;76.05
33625;BME280;19962;47.820;1.930;2022-10-31T04:42:54;100582.13;;;22.03;74.84
33625;BME280;19962;47.820;1.930;2022-10-31T04:45:21;100579.94;;;22.00;75.69
33625;BME280;19962;47.820;1.930;2022-10-31T04:47:47;100577.78;;;21.97;76.04
33625;BME280;19962;47.820;1.930;2022-10-31T04:50:13;100565.16;;;22.00;75.84
33625;BME280;19962;47.820;1.930;2022-10-31T04:52:41;100572.19;;;21.97;75.89
33625;BME280;19962;47.820;1.930;2022-10-31T04:55:07;100565.34;;;21.90;76.33
33625;BME280;19962;47.820;1.930;2022-10-31T04:57:44;100559.41;;;21.91;75.74
33625;BME280;19962;47.820;1.930;2022-10-31T05:00:12;100558.81;;;21.94;75.34
33625;BME280;19962;47.820;1.930;2022-10-31T05:02:46;100557.59;;;22.00;74.26
33625;BME280;19962;47.820;1.930;2022-10-31T05:05:14;100558.53;;;22.09;74.39
33625;BME280;19962;47.820;1.930;2022-10-31T05:07:42;100556.09;;;22.08;75.03
33625;BME280;19962;47.820;1.930;2022-10-31T05:10:10;100544.16;;;22.02;75.21
33625;BME280;19962;47.820;1.930;2022-10-31T05:12:37;100540.22;;;22.03;75.12
33625;BME280;19962;47.820;1.930;2022-10-31T05:15:04;100533.72;;;22.08;75.21
33625;BME280;19962;47.820;1.930;2022-10-31T05:17:31;100533.09;;;22.11;74.76
33625;BME280;19962;47.820;1.930;2022-10-31T05:19:57;100543.47;;;22.10;75.02
33625;BME280;19962;47.820;1.930;2022-10-31T05:22:23;100538.03;;;22.00;75.71
33625;BME280;19962;47.820;1.930;2022-10-31T05:24:49;100530.19;;;22.02;75.49
33625;BME280;19962;47.820;1.930;2022-10-31T05:27:16;100526.69;;;22.10;74.85
33625;BME280;19962;47.820;1.930;2022-10-31T05:29:42;100527.31;;;22.07;75.08
33625;BME280;19962;47.820;1.930;2022-10-31T05:32:08;100526.16;;;22.08;75.08
33625;BME280;19962;47.820;1.930;2022-10-31T05:34:34;100525.00;;;22.09;74.93
33625;BME280;19962;47.820;1.930;2022-10-31T05:37:00;100519.28;;;22.19;73.95
33625;BME280;19962;47.820;1.930;2022-10-31T05:39:26;100511.69;;;22.20;73.55
33625;BME280;19962;47.820;1.930;2022-10-31T05:41:52;100502.41;;;22.24;73.66
33625;BME280;19962;47.820;1.930;2022-10-31T05:44:18;100492.97;;;22.20;73.64
33625;BME280;19962;47.820;1.930;2022-10-31T05:46:45;100494.94;;;22.20;73.90
33625;BME280;19962;47.820;1.930;2022-10-31T05:49:11;100474.34;;;22.29;73.34
33625;BME280;19962;47.820;1.930;2022-10-31T05:51:37;100483.03;;;22.14;74.05
33625;BME280;19962;47.820;1.930;2022-10-31T05:54:04;100477.53;;;22.09;74.34
33625;BME280;19962;47.820;1.930;2022-10-31T05:56:30;100476.91;;;22.12;74.12
33625;BME280;19962;47.820;1.930;2022-10-31T05:58:56;100483.66;;;22.11;74.29
33625;BME280;19962;47.820;1.930;2022-10-31T06:01:22;100486.94;;;22.13;74.19
33625;BME280;19962;47.820;1.930;2022-10-31T06:03:49;100483.03;;;22.14;74.31
33625;BME280;19962;47.820;1.930;2022-10-31T06:06:15;100488.94;;;22.13;74.03
33625;BME280;19962;47.820;1.930;2022-10-31T06:08:42;100481.91;;;22.15;74.06
33625;BME280;19962;47.820;1.930;2022-10-31T06:11:08;100483.03;;;22.14;73.93
33625;BME280;19962;47.820;1.930;2022-10-31T06:13:34;100479.09;;;22.15;73.88
33625;BME280;19962;47.820;1.930;2022-10-31T06:16:00;100477.66;;;22.18;73.67
33625;BME280;19962;47.820;1.930;2022-10-31T06:18:26;100475.56;;;22.10;74.36
33625;BME280;19962;47.820;1.930;2022-10-31T06:20:52;100475.06;;;22.08;74.51
33625;BME280;19962;47.820;1.930;2022-10-31T06:23:18;100468.03;;;22.10;74.28
33625;BME280;19962;47.820;1.930;2022-10-31T06:25:49;100466.88;;;22.11;74.44
33625;BME280;19962;47.820;1.930;2022-10-31T06:28:15;100456.34;;;22.35;72.33
33625;BME280;19962;47.820;1.930;2022-10-31T06:30:41;100464.00;;;22.43;71.40
33625;BME280;19962;47.820;1.930;2022-10-31T06:33:07;100453.03;;;22.33;71.67
33625;BME280;19962;47.820;1.930;2022-10-31T06:35:34;100461.53;;;22.28;71.68
33625;BME280;19962;47.820;1.930;2022-10-31T06:38:00;100462.16;;;22.39;71.91
33625;BME280;19962;47.820;1.930;2022-10-31T06:40:26;100472.38;;;22.43;72.02
33625;BME280;19962;47.820;1.930;2022-10-31T06:43:02;100462.59;;;22.46;71.58
33625;BME280;19962;47.820;1.930;2022-10-31T06:45:28;100458.66;;;22.47;71.72
33625;BME280;19962;47.820;1.930;2022-10-31T06:47:55;100456.38;;;22.49;71.32
33625;BME280;19962;47.820;1.930;2022-10-31T06:50:22;100450.50;;;22.50;71.52
33625;BME280;19962;47.820;1.930;2022-10-31T06:52:56;100444.34;;;22.48;71.30
33625;BME280;19962;47.820;1.930;2022-10-31T06:55:23;100439.41;;;22.45;71.60
33625;BME280;19962;47.820;1.930;2022-10-31T06:57:53;100432.94;;;22.45;71.28
33625;BME280;19962;47.820;1.930;2022-10-31T07:00:20;100426.31;;;22.41;72.03
33625;BME280;19962;47.820;1.930;2022-10-31T07:02:57;100436.47;;;22.23;72.73
33625;BME280;19962;47.820;1.930;2022-10-31T07:05:24;100434.78;;;22.22;72.91
33625;BME280;19962;47.820;1.930;2022-10-31T07:08:03;100430.88;;;22.23;72.72
33625;BME280;19962;47.820;1.930;2022-10-31T07:10:31;100428.00;;;22.28;73.47
33625;BME280;19962;47.820;1.930;2022-10-31T07:12:59;100424.16;;;22.24;73.28
33625;BME280;19962;47.820;1.930;2022-10-31T07:15:27;100429.22;;;22.22;73.32
33625;BME280;19962;47.820;1.930;2022-10-31T07:17:54;100429.00;;;22.19;73.87
33625;BME280;19962;47.820;1.930;2022-10-31T07:20:20;100426.22;;;22.19;77.17
33625;BME280;19962;47.820;1.930;2022-10-31T07:22:46;100419.06;;;22.26;76.38
33625;BME280;19962;47.820;1.930;2022-10-31T07:25:12;100418.44;;;22.16;76.80
33625;BME280;19962;47.820;1.930;2022-10-31T07:27:40;100422.56;;;22.18;78.30
33625;BME280;19962;47.820;1.930;2022-10-31T07:30:08;100424.75;;;22.21;79.20
33625;BME280;19962;47.820;1.930;2022-10-31T07:35:05;100412.34;;;22.41;76.43
33625;BME280;19962;47.820;1.930;2022-10-31T07:37:32;100414.00;;;22.28;76.22
33625;BME280;19962;47.820;1.930;2022-10-31T07:39:58;100407.16;;;22.34;75.31
33625;BME280;19962;47.820;1.930;2022-10-31T07:42:24;100406.75;;;22.27;75.57
33625;BME280;19962;47.820;1.930;2022-10-31T07:44:50;100406.44;;;22.29;75.28
33625;BME280;19962;47.820;1.930;2022-10-31T07:47:16;100409.47;;;22.32;74.92
33625;BME280;19962;47.820;1.930;2022-10-31T07:49:42;100414.81;;;22.29;75.21
33625;BME280;19962;47.820;1.930;2022-10-31T07:52:08;100409.66;;;22.36;74.66
33625;BME280;19962;47.820;1.930;2022-10-31T07:54:34;100418.13;;;22.44;74.01
33625;BME280;19962;47.820;1.930;2022-10-31T07:57:00;100417.03;;;22.45;73.97
33625;BME280;19962;47.820;1.930;2022-10-31T07:59:26;100436.78;;;22.35;74.36
33625;BME280;19962;47.820;1.930;2022-10-31T08:01:53;100423.94;;;22.34;74.14
33625;BME280;19962;47.820;1.930;2022-10-31T08:04:19;100416.59;;;22.38;74.01
33625;BME280;19962;47.820;1.930;2022-10-31T08:06:45;100403.75;;;22.37;73.81
33625;BME280;19962;47.820;1.930;2022-10-31T08:09:14;100414.41;;;22.35;74.12
33625;BME280;19962;47.820;1.930;2022-10-31T08:11:40;100413.28;;;22.36;73.98
33625;BME280;19962;47.820;1.930;2022-10-31T08:14:06;100412.66;;;22.26;74.30
33625;BME280;19962;47.820;1.930;2022-10-31T08:16:32;100407.88;;;22.26;74.48
33625;BME280;19962;47.820;1.930;2022-10-31T08:18:58;100409.88;;;22.26;74.62
33625;BME280;19962;47.820;1.930;2022-10-31T08:21:24;100413.38;;;22.31;74.43
33625;BME280;19962;47.820;1.930;2022-10-31T08:23:50;100416.16;;;22.31;74.21
33625;BME280;19962;47.820;1.930;2022-10-31T08:26:16;100427.78;;;22.38;73.84
33625;BME280;19962;47.820;1.930;2022-10-31T08:28:42;100425.19;;;22.42;73.94
33625;BME280;19962;47.820;1.930;2022-10-31T08:31:08;100422.38;;;22.42;74.08
33625;BME280;19962;47.820;1.930;2022-10-31T08:33:36;100413.81;;;22.52;74.14
33625;BME280;19962;47.820;1.930;2022-10-31T08:36:02;100399.81;;;22.52;73.95
33625;BME280;19962;47.820;1.930;2022-10-31T08:38:28;100398.56;;;22.44;74.07
33625;BME280;19962;47.820;1.930;2022-10-31T08:40:54;100384.31;;;22.46;73.64
33625;BME280;19962;47.820;1.930;2022-10-31T08:43:20;100378.50;;;22.42;73.96
33625;BME280;19962;47.820;1.930;2022-10-31T08:45:48;100353.13;;;22.52;73.41
33625;BME280;19962;47.820;1.930;2022-10-31T08:48:17;100357.56;;;22.53;73.11
33625;BME280;19962;47.820;1.930;2022-10-31T08:50:44;100350.88;;;22.54;73.80
33625;BME280;19962;47.820;1.930;2022-10-31T08:53:16;100350.97;;;22.49;74.42
33625;BME280;19962;47.820;1.930;2022-10-31T08:55:43;100344.75;;;22.52;74.39
33625;BME280;19962;47.820;1.930;2022-10-31T08:58:12;100351.38;;;22.56;73.63
33625;BME280;19962;47.820;1.930;2022-10-31T09:00:39;100356.97;;;22.56;73.80
33625;BME280;19962;47.820;1.930;2022-10-31T09:03:11;100351.88;;;22.58;73.49
33625;BME280;19962;47.820;1.930;2022-10-31T09:05:37;100361.00;;;22.37;76.42
33625;BME280;19962;47.820;1.930;2022-10-31T09:08:05;100356.53;;;22.49;75.41
33625;BME280;19962;47.820;1.930;2022-10-31T09:10:32;100357.38;;;22.50;74.74
33625;BME280;19962;47.820;1.930;2022-10-31T09:13:04;100360.66;;;22.65;74.37
33625;BME280;19962;47.820;1.930;2022-10-31T09:15:33;100344.63;;;22.57;74.87
33625;BME280;19962;47.820;1.930;2022-10-31T09:17:59;100346.38;;;22.67;75.12
33625;BME280;19962;47.820;1.930;2022-10-31T09:20:27;100341.59;;;22.67;74.76
33625;BME280;19962;47.820;1.930;2022-10-31T09:23:00;100336.53;;;22.69;75.09
33625;BME280;19962;47.820;1.930;2022-10-31T09:25:27;100336.28;;;22.79;74.63
33625;BME280;19962;47.820;1.930;2022-10-31T09:27:58;100334.00;;;22.81;74.32
33625;BME280;19962;47.820;1.930;2022-10-31T09:30:25;100321.94;;;22.72;74.77
33625;BME280;19962;47.820;1.930;2022-10-31T09:32:58;100313.72;;;22.76;74.64
33625;BME280;19962;47.820;1.930;2022-10-31T09:35:26;100300.06;;;22.74;74.77
33625;BME280;19962;47.820;1.930;2022-10-31T09:37:56;100313.41;;;22.77;75.17
33625;BME280;19962;47.820;1.930;2022-10-31T09:40:35;100327.72;;;22.76;75.08
33625;BME280;19962;47.820;1.930;2022-10-31T09:43:14;100326.00;;;22.88;74.34
33625;BME280;19962;47.820;1.930;2022-10-31T09:49:17;100322.91;;;22.76;74.76
33625;BME280;19962;47.820;1.930;2022-10-31T09:52:03;100314.75;;;22.80;74.86
33625;BME280;19962;47.820;1.930;2022-10-31T09:55:04;100313.91;;;22.79;75.20
33625;BME280;19962;47.820;1.930;2022-10-31T09:57:27;100309.47;;;22.78;74.66
33625;BME280;19962;47.820;1.930;2022-10-31T09:59:54;100299.66;;;22.89;74.94
33625;BME280;19962;47.820;1.930;2022-10-31T10:02:36;100304.28;;;22.85;75.12
33625;BME280;19962;47.820;1.930;2022-10-31T10:05:10;100291.28;;;22.89;75.01
33625;BME280;19962;47.820;1.930;2022-10-31T10:10:51;100302.47;;;22.89;75.40
33625;BME280;19962;47.820;1.930;2022-10-31T10:13:32;100298.41;;;22.95;75.09
33625;BME280;19962;47.820;1.930;2022-10-31T10:30:30;100291.19;;;22.94;75.29
33625;BME280;19962;47.820;1.930;2022-10-31T10:33:02;100290.91;;;23.04;74.66
33625;BME280;19962;47.820;1.930;2022-10-31T10:35:38;100280.34;;;23.01;74.67
33625;BME280;19962;47.820;1.930;2022-10-31T10:40:46;100273.84;;;23.14;73.91
33625;BME280;19962;47.820;1.930;2022-10-31T10:46:05;100265.78;;;23.13;73.70
33625;BME280;19962;47.820;1.930;2022-10-31T10:59:47;100249.09;;;23.21;75.93
33625;BME280;19962;47.820;1.930;2022-10-31T11:02:19;100244.09;;;23.18;77.16
33625;BME280;19962;47.820;1.930;2022-10-31T11:04:52;100235.09;;;23.21;76.57
33625;BME280;19962;47.820;1.930;2022-10-31T11:07:19;100229.16;;;23.23;76.09
33625;BME280;19962;47.820;1.930;2022-10-31T11:09:45;100222.22;;;23.20;75.76
33625;BME280;19962;47.820;1.930;2022-10-31T11:12:58;100220.06;;;23.17;75.86
33625;BME280;19962;47.820;1.930;2022-10-31T11:15:26;100221.09;;;23.21;76.05
33625;BME280;19962;47.820;1.930;2022-10-31T11:17:55;100215.09;;;23.14;76.32
33625;BME280;19962;47.820;1.930;2022-10-31T11:20:31;100205.78;;;23.19;75.80
33625;BME280;19962;47.820;1.930;2022-10-31T11:23:15;100212.91;;;23.11;76.25
33625;BME280;19962;47.820;1.930;2022-10-31T11:25:52;100197.16;;;23.15;75.77
33625;BME280;19962;47.820;1.930;2022-10-31T11:28:19;100200.09;;;23.10;76.17
33625;BME280;19962;47.820;1.930;2022-10-31T11:30:49;100191.81;;;23.27;75.27
33625;BME280;19962;47.820;1.930;2022-10-31T11:33:27;100201.22;;;23.31;74.90
33625;BME280;19962;47.820;1.930;2022-10-31T11:35:55;100187.69;;;23.25;75.45
33625;BME280;19962;47.820;1.930;2022-10-31T11:38:24;100191.19;;;23.30;75.42
33625;BME280;19962;47.820;1.930;2022-10-31T11:41:02;100186.25;;;23.36;74.95
33625;BME280;19962;47.820;1.930;2022-10-31T11:43:30;100181.16;;;23.38;73.85
33625;BME280;19962;47.820;1.930;2022-10-31T11:45:56;100172.75;;;23.38;74.02
33625;BME280;19962;47.820;1.930;2022-10-31T11:48:24;100173.56;;;23.38;74.54
33625;BME280;19962;47.820;1.930;2022-10-31T11:50:54;100163.69;;;23.32;75.39
33625;BME280;19962;47.820;1.930;2022-10-31T11:53:30;100155.28;;;23.41;74.68
33625;BME280;19962;47.820;1.930;2022-10-31T11:56:13;100154.16;;;23.42;74.28
33625;BME280;19962;47.820;1.930;2022-10-31T11:58:40;100159.44;;;23.43;74.41
33625;BME280;19962;47.820;1.930;2022-10-31T12:01:24;100145.69;;;23.25;75.35
33625;BME280;19962;47.820;1.930;2022-10-31T12:04:12;100151.22;;;23.16;75.78
33625;BME280;19962;47.820;1.930;2022-10-31T12:06:42;100144.28;;;23.14;75.80
33625;BME280;19962;47.820;1.930;2022-10-31T12:09:29;100144.13;;;23.10;75.93
33625;BME280;19962;47.820;1.930;2022-10-31T12:20:19;100107.06;;;23.05;76.63
33625;BME280;19962;47.820;1.930;2022-10-31T12:23:13;100096.53;;;23.02;76.40
33625;BME280;19962;47.820;1.930;2022-10-31T12:34:41;100066.88;;;23.01;76.57
33625;BME280;19962;47.820;1.930;2022-10-31T12:40:35;100059.47;;;22.96;76.73
33625;BME280;19962;47.820;1.930;2022-10-31T12:43:20;100055.50;;;22.97;76.77
33625;BME280;19962;47.820;1.930;2022-10-31T12:45:54;100058.84;;;22.99;76.74
33625;BME280;19962;47.820;1.930;2022-10-31T12:48:39;100048.97;;;23.02;76.39
33625;BME280;19962;47.820;1.930;2022-10-31T12:59:40;100025.91;;;22.96;76.23
33625;BME280;19962;47.820;1.930;2022-10-31T13:05:00;100020.66;;;23.03;75.81
33625;BME280;19962;47.820;1.930;2022-10-31T13:07:40;100020.31;;;22.96;76.15
33625;BME280;19962;47.820;1.930;2022-10-31T13:10:15;100009.75;;;22.93;76.36
33625;BME280;19962;47.820;1.930;2022-10-31T13:12:42;100013.88;;;22.96;76.31
33625;BME280;19962;47.820;1.930;2022-10-31T13:15:22;100010.75;;;22.97;76.11
33625;BME280;19962;47.820;1.930;2022-10-31T13:17:56;100007.81;;;23.02;76.15
33625;BME280;19962;47.820;1.930;2022-10-31T13:20:42;100000.22;;;22.94;76.17
33625;BME280;19962;47.820;1.930;2022-10-31T13:23:34;99995.28;;;22.91;76.57
33625;BME280;19962;47.820;1.930;2022-10-31T13:26:10;99994.66;;;22.94;76.29
33625;BME280;19962;47.820;1.930;2022-10-31T13:28:48;99992.31;;;22.96;76.22
33625;BME280;19962;47.820;1.930;2022-10-31T13:31:17;99983.09;;;22.96;76.24
33625;BME280;19962;47.820;1.930;2022-10-31T13:33:57;99980.50;;;22.99;76.08
33625;BME280;19962;47.820;1.930;2022-10-31T13:39:23;99967.31;;;22.91;76.55
33625;BME280;19962;47.820;1.930;2022-10-31T13:44:27;99965.66;;;22.90;76.72
33625;BME280;19962;47.820;1.930;2022-10-31T13:46:56;99955.97;;;22.88;76.70
33625;BME280;19962;47.820;1.930;2022-10-31T13:52:13;99952.16;;;22.92;76.17
33625;BME280;19962;47.820;1.930;2022-10-31T13:54:45;99944.28;;;22.94;76.02
33625;BME280;19962;47.820;1.930;2022-10-31T13:59:55;99938.19;;;22.92;76.50
33625;BME280;19962;47.820;1.930;2022-10-31T14:02:33;99938.34;;;22.96;76.12
33625;BME280;19962;47.820;1.930;2022-10-31T14:05:19;99915.81;;;22.92;76.26
33625;BME280;19962;47.820;1.930;2022-10-31T14:07:48;99927.50;;;22.94;76.11
33625;BME280;19962;47.820;1.930;2022-10-31T14:10:33;99928.78;;;22.88;76.77
33625;BME280;19962;47.820;1.930;2022-10-31T14:13:15;99930.94;;;22.91;76.36
33625;BME280;19962;47.820;1.930;2022-10-31T14:16:00;99923.03;;;22.93;76.15
33625;BME280;19962;47.820;1.930;2022-10-31T14:18:38;99916.97;;;22.91;76.22
33625;BME280;19962;47.820;1.930;2022-10-31T14:23:49;99908.41;;;22.96;75.95
33625;BME280;19962;47.820;1.930;2022-10-31T14:32:03;99903.66;;;22.97;76.13
33625;BME280;19962;47.820;1.930;2022-10-31T14:34:35;99899.19;;;22.96;75.99
33625;BME280;19962;47.820;1.930;2022-10-31T14:46:07;99878.97;;;22.90;76.07
33625;BME280;19962;47.820;1.930;2022-10-31T14:49:11;99876.63;;;22.92;76.04
33625;BME280;19962;47.820;1.930;2022-10-31T14:51:43;99875.00;;;22.91;76.17
33625;BME280;19962;47.820;1.930;2022-10-31T14:54:23;99873.84;;;22.92;75.97
33625;BME280;19962;47.820;1.930;2022-10-31T14:56:57;99872.69;;;22.93;75.96
33625;BME280;19962;47.820;1.930;2022-10-31T14:59:28;99873.53;;;22.94;75.88
33625;BME280;19962;47.820;1.930;2022-10-31T15:02:10;99867.59;;;22.95;75.92
33625;BME280;19962;47.820;1.930;2022-10-31T15:04:38;99860.38;;;22.94;75.94
33625;BME280;19962;47.820;1.930;2022-10-31T15:07:11;99855.56;;;22.95;74.82
33625;BME280;19962;47.820;1.930;2022-10-31T15:09:41;99857.91;;;22.93;74.68
33625;BME280;19962;47.820;1.930;2022-10-31T15:14:50;99857.72;;;22.89;73.54
33625;BME280;19962;47.820;1.930;2022-10-31T15:17:18;99848.69;;;22.84;71.45
33625;BME280;19962;47.820;1.930;2022-10-31T15:19:45;99844.22;;;22.83;71.02
33625;BME280;19962;47.820;1.930;2022-10-31T15:22:16;99845.56;;;22.85;70.11
33625;BME280;19962;47.820;1.930;2022-10-31T15:24:43;99853.44;;;22.83;72.37
33625;BME280;19962;47.820;1.930;2022-10-31T15:27:17;99851.47;;;22.84;72.32
